AirNav   Air Wisconsin pilot careers
 
 947 users online  

20CL Mysterious Valley Airport
Pope Valley, California, USA

GOING TO POPE VALLEY?


FAA INFORMATION EFFECTIVE 31 JANUARY 2019

Location

FAA Identifier: 20CL
Lat/Long: 38-44-57.6490N / 122-22-02.9220W
38-44.960817N / 122-22.048700W
38.7493469 / -122.3674783
(estimated)
Elevation: 1410 ft. / 430 m (estimated)
Variation: 16E (1985)
From city: 9 miles N of POPE VALLEY, CA
Time zone: UTC -8 (UTC -7 during Daylight Saving Time)
Zip code: 94558

Airport Operations

Airport use: Private use. Permission required prior to landing
Activation date: 05/1971
Control tower: no
ARTCC: OAKLAND CENTER
FSS: OAKLAND FLIGHT SERVICE STATION
Attendance: IREG
Wind indicator: yes
Segmented circle: no

Nearby radio navigation aids

VOR radial/distance  VOR name  Freq  Var
ILAr201/25.0WILLIAMS VORTAC114.4018E
STSr039/25.3SANTA ROSA VOR/DME113.0016E
SGDr343/34.2SCAGGS ISLAND VORTAC112.1017E

Airport Services

Airframe service: NONE
Powerplant service: NONE

Runway Information

Runway 14/32

Dimensions: 3500 x 30 ft. / 1067 x 9 m
Surface: gravel
RUNWAY 14  RUNWAY 32
Traffic pattern: leftleft

Airport Ownership and Management from official FAA records

Ownership: Privately-owned
Owner: N. C. PEASE
48 DONALD DR
ORINDA, CA 94563
Phone 925-254-2413

Airport Operational Statistics

Aircraft based on the field: 2
Single engine airplanes: 2
    

Additional Remarks

HAZARDOUS STRIP-SURROUNDED BY HILLS, 95 FT FENCE TO FENCE.

Instrument Procedures

There are no published instrument procedures at 20CL.

Some nearby airports with instrument procedures:

O41 - Watts-Woodland Airport (24 nm E)
KSTS - Charles M Schulz - Sonoma County Airport (25 nm SW)
KDWA - Yolo County Airport (26 nm SE)
1O2 - Lampson Field Airport (29 nm NW)
O60 - Cloverdale Municipal Airport (29 nm W)
 
Loc | Ops | Rwys | IFR | FBO | Links
Com | Nav | Svcs | Stats | Notes

Sonoma Jet Center
 
Area around 20CL (Mysterious Valley Airport)
 
Road maps at: MapQuest Bing Google
 
Aerial photo
WARNING: Photo may not be current or correct
Aerial photo of 20CL (Mysterious Valley Airport)
Do you have a better or more recent aerial photo of Mysterious Valley Airport that you would like to share? If so, please send us your photo.

 
Sectional chart

 
Airport distance calculator
Flying to Mysterious Valley Airport? Find the distance to fly.

From to 20CL

Sunrise and sunset
Times for 17-Feb-2019
 Local
(UTC-8)
 Zulu
(UTC)
Morning civil twilight06:3214:32
Sunrise06:5914:59
Sunset17:4801:48
Evening civil twilight18:1502:15

Current date and time
Zulu (UTC)  17-Feb-2019 20:59:24
Local (UTC-8)  17-Feb-2019 12:59:24
 
METAR
KSTS 
26nm SW 
707-573-8393
172053Z 32010KT 10SM SCT045 SCT055 12/00 A3000 RMK AO2 SLP155 T01170000 58011
KVCB 
29nm SE 
172053Z AUTO 01005KT 10SM BKN037 BKN047 11/03 A3003 RMK AO2 SLP167 6//// T01110028 58007 PNO $
KEDU 
30nm SE 
172035Z AUTO 35004KT 10SM FEW026 09/03 A3003 RMK AO1
KO69 
32nm S 
171750Z AUTO 32007KT 10SM FEW110 08/04 A3005 RMK A01
KAPC 
33nm S 
172054Z 00000KT 10SM FEW045 11/02 A3001 RMK AO2 SLP154 T01110017 58010
KSUU 
36nm SE 
171958Z AUTO 00000KT 10SM FEW027 13/04 A3004 RMK AO2 SLP180 T01250040 $
KSMF 
36nm E 
172053Z 34006KT 10SM SCT026 SCT031 09/03 A3002 RMK AO2 SLP164 T00890033 58006
KDVO 
37nm S 
172035Z AUTO 29012G19KT 10SM CLR 12/01 A3004 RMK AO2
KMYV 
43nm NE 
172053Z AUTO 34008KT 10SM FEW029 BKN038 09/02 A3001 RMK AO2 SLP167 T00890017 58009
KSAC 
43nm E 
172053Z 32008KT 10SM BKN027 OVC036 10/04 A3002 RMK AO2 SLP166 T01000044 58004
TAF
KSTS 
26nm SW 
171721Z 1718/1818 32011G18KT P6SM VCSH FEW030 SCT050 TEMPO 1718/1719 1SM BR SCT004 FM180200 32006KT P6SM FEW200 FM180500 VRB04KT 2SM BR SCT007 FM180700 00000KT 1/4SM FG VV002
NOTAMs
Click for the latest NOTAMs
NOTAMs are issued by the DoD/FAA and will open in a separate window not controlled by AirNav.

 

 
 

Would you like to see your business listed on this page?

 If your business provides an interesting product or service to pilots, flight crews, aircraft, or users of the Mysterious Valley Airport, you should consider listing it here.  To start the listing process, click on the button below
 
Add a business
 

Other Pages about Mysterious Valley Airport

Update a link
 
Copyright © AirNav, LLC. All rights reserved. Privacy Policy  Contact